Weather observations for the past three days for
La Grande/Union County Airport
Imperial (Metric)
Date Time (pdt) Wind (mph) Vis. (mi.) Weather Sky Cond. Temperature (ºF) Relative Humidity Wind Chill (°F) Heat Index (°F) Pressure Precipitation (in)
Air Dwpt 6 hour altimeter (in) sea level (mb) 1 hr 3 hr 6 hr
Max. Min.
01 23:56 W 14 10.00 Fair CLR 63 42.1 47% 29.8 1007.7
01 22:56 W 20 G 29 10.00 Fair CLR 66 42.1 82.9 66 42% 29.8 1007.4
01 21:56 W 17 10.00 Fair CLR 68 43 40% 29.79 1007.0
01 20:56 W 16 10.00 Fair CLR 69.1 44.1 41% 29.76 1006.6
01 19:56 W 22 G 29 10.00 Fair and Breezy CLR 71.1 44.1 38% 29.73 1005.7
01 18:56 SE 8 10.00 Fair CLR 79 42.1 27% 78 29.7 1004.6
01 17:56 SE 14 10.00 Fair CLR 82 42.1 24% 80 29.71 1004.7
01 16:56 S 14 G 22 10.00 Fair CLR 82 43 82.9 72 25% 80 29.73 1005.3
01 15:56 S 15 10.00 Fair CLR 81 44.1 27% 80 29.75 1006.0
01 14:56 S 15 G 24 10.00 Fair CLR 79 48 34% 79 29.78 1007.1
01 13:56 SE 10 10.00 Fair CLR 73.9 46.9 38% 29.81 1008.3
01 12:56 SE 10 10.00 Fair CLR 75 48.9 40% 77 29.82 1008.4
01 11:56 SE 9 G 16 10.00 Mostly Cloudy BKN110 72 46 40% 29.85 1009.5
01 10:56 S 26 G 32 9.00 Mostly Cloudy and Windy BKN110 73 43 73.9 48.9 34% 29.84 1009.1
01 09:56 S 13 10.00 Mostly Cloudy BKN110 71.1 39.9 32% 29.83 1008.8
01 07:56 Calm 10.00 Fair CLR 57 35.1 44% 29.83 1009.2
01 06:56 Calm 9.00 Fair CLR 50 35.1 57% 29.81 1008.2
01 05:56 W 6 10.00 Fair CLR 52 30.9 45% 29.8 1007.6
01 04:56 SE 5 10.00 Fair CLR 52 32 61 51.1 47% 29.81 1007.9
01 03:56 S 3 10.00 Fair CLR 55 32 42% 29.81 1007.6
01 02:56 Calm 10.00 Fair CLR 54 32 43% 29.82 1007.9
01 01:56 NW 6 10.00 Fair CLR 53.1 34 48% 29.82 1008.1
01 00:56 Calm 10.00 Fair CLR 57.9 28 32% 29.82 1008.1
31 23:56 SW 5 10.00 Fair CLR 59 28 31% 29.82 1008.6
31 22:56 Calm 10.00 Fair CLR 61 30.9 86 60.1 32% 29.82 1009.0
31 21:56 N 3 10.00 Fair CLR 62.1 33.1 34% 29.82 1009.1
31 20:56 Calm 10.00 Fair CLR 70 30.9 23% 29.83 1009.1
31 19:56 E 5 10.00 Fair CLR 70 35.1 28% 29.81 1008.8
31 18:56 SE 7 10.00 Fair CLR 79 30 17% 78 29.81 1008.8
31 17:56 SE 14 10.00 Fair CLR 86 28.9 13% 83 29.82 1008.6
31 16:56 SE 10 10.00 Fair CLR 86 28.9 88 64.9 13% 83 29.84 1009.3
31 15:56 SE 10 10.00 Fair CLR 88 28.9 12% 84 29.86 1009.8
31 14:56 SE 13 10.00 Fair CLR 88 27 11% 84 29.88 1010.5
31 13:56 SE 10 9.00 Fair CLR 84.9 30 14% 82 29.91 1011.5
31 12:56 E 6 9.00 Fair CLR 81 35.1 19% 79 29.94 1012.8
31 11:56 Vrbl 5 10.00 Fair CLR 73 37.9 28% 29.98 1014.4
31 10:56 E 5 10.00 Fair CLR 64.9 37 66 39 36% 30.01 1015.7
31 09:56 Calm 10.00 Fair CLR 59 36 42% 30.04 1016.5
31 08:56 NW 3 10.00 Fair CLR 54 35.1 49% 30.05 1017.4
31 07:56 Calm 10.00 Fair CLR 48.9 33.1 55% 30.06 1017.6
31 06:56 Calm 10.00 Fair CLR 41 30 65% 30.05 1017.1
31 05:56 Calm 9.00 Fair CLR 42.1 34 73% 30.04 1016.7
31 04:56 Calm 10.00 Fair CLR 42.1 30.9 57 41 65% 30.03 1016.6
31 03:56 SE 3 10.00 Fair CLR 44.1 33.1 65% 30.03 1016.4
31 02:56 Calm 10.00 Fair CLR 46 34 63% 30.04 1016.5
31 00:56 Calm 10.00 Fair CLR 50 33.1 52% 30.05 1016.9
30 23:56 SE 5 10.00 Fair CLR 55 33.1 44% 30.04 1016.8
30 22:56 NW 3 10.00 Fair CLR 55.9 34 75.9 55.9 44% 30.04 1016.8
30 21:56 NW 8 10.00 Fair CLR 63 35.1 35% 30.04 1016.7
30 20:56 N 7 10.00 Fair CLR 59 36 42% 30.03 1016.7
30 19:56 W 9 10.00 Fair CLR 66 34 30% 30.02 1016.1
30 18:56 Calm 10.00 Fair CLR 73.9 34 23% 30.01 1015.8
30 17:56 Calm 10.00 Fair CLR 75 33.1 22% 76 30.01 1015.8
30 16:56 E 5 10.00 Fair CLR 75.9 34 75.9 62.1 22% 77 30.02 1015.9
30 15:56 NE 9 10.00 Fair CLR 75 34 22% 76 30.03 1016.3
30 14:56 Vrbl 3 10.00 Fair CLR 73 35.1 25% 30.04 1016.8
30 13:56 Vrbl 6 10.00 Fair CLR 71.1 36 28% 30.07 1017.7
30 12:56 Vrbl 3 10.00 Fair CLR 69.1 37 31% 30.09 1018.3
30 11:56 Vrbl 5 10.00 Fair CLR 64 36 35% 30.11 1019.2
30 10:56 E 5 10.00 Fair CLR 62.1 36 62.1 37.9 38% 30.12 1019.8
30 09:56 Vrbl 7 10.00 Fair CLR 59 37.9 46% 30.14 1020.3
30 08:56 E 3 10.00 Fair CLR 54 39 57% 30.15 1020.7
30 07:56 NE 3 10.00 Fair CLR 48.9 37 64% 30.15 1020.8
30 06:56 Calm 10.00 Fair CLR 39.9 35.1 83% 30.14 1021.1
30 05:56 SW 3 10.00 Fair CLR 41 35.1 79% 30.13 1020.4
30 04:56 E 3 10.00 Fair CLR 44.1 36 55 42.1 73% 30.11 1019.6
30 03:56 S 3 10.00 Fair CLR 44.1 36 73% 30.11 1019.2
30 01:56 W 8 10.00 Fair CLR 50 37.9 63% 47 30.1 1018.4
30 00:56 W 9 10.00 Fair CLR 53.1 37.9 57% 30.09 1018.2
Date Time (pdt) Wind (mph) Vis. (mi.) Weather Sky Cond. Air Dwpt Max. Min. Relative Humidity Wind Chill (°F) Heat Index (°F) altimeter (in) sea level (mb) 1 hr 3 hr 6 hr
6 hour
Temperature (ºF) Pressure Precipitation (in)